Time;durP1;ratioP1;P1;durP2;ratioP2;P2;SDS_P1;SDS_P2;PMS_P1;PMS_P2;Temp;Humidity;BMP_temperature;BMP_pressure;BME280_temperature;BME280_humidity;BME280_pressure;Samples;Min_cycle;Max_cycle;Signal;HPM_P1;HPM_P2
2021/03/22 00:00:11;;;;;;;;;7.50;5.25;;;;;10.55;40.96;97880.16;4733301;28;105252;-81
2021/03/22 00:02:37;;;;;;;;;11.00;6.50;;;;;10.55;40.80;97882.03;4787128;28;104167;-81
2021/03/22 00:05:05;;;;;;;;;8.25;6.00;;;;;10.55;40.84;97884.72;4687906;28;103980;-81
2021/03/22 00:07:32;;;;;;;;;5.75;5.00;;;;;10.54;41.01;97886.59;4786579;28;103234;-81
2021/03/22 00:09:58;;;;;;;;;4.00;4.00;;;;;10.53;40.97;97887.66;4828961;28;104214;-80
2021/03/22 00:12:25;;;;;;;;;5.00;5.00;;;;;10.54;40.80;97893.88;4706028;28;102582;-81
2021/03/22 00:14:51;;;;;;;;;8.00;6.00;;;;;10.53;41.04;97893.09;4756440;28;103072;-81
2021/03/22 00:17:18;;;;;;;;;8.25;5.25;;;;;10.51;40.82;97892.47;4811917;28;102496;-81
2021/03/22 00:19:45;;;;;;;;;5.75;5.00;;;;;10.53;41.05;97898.50;4821467;28;104297;-81
2021/03/22 00:22:11;;;;;;;;;7.75;5.75;;;;;10.52;41.04;97894.13;4834498;28;103226;-81
2021/03/22 00:24:38;;;;;;;;;7.50;5.25;;;;;10.52;40.76;97896.81;4836290;28;102370;-80
2021/03/22 00:27:05;;;;;;;;;6.00;4.25;;;;;10.51;40.90;97899.72;4761495;28;103769;-81
2021/03/22 00:29:46;;;;;;;;;6.00;5.00;;;;;10.51;40.42;97892.47;4722629;28;105502;-81
2021/03/22 00:32:13;;;;;;;;;5.00;4.25;;;;;10.51;41.03;97899.72;4681230;28;104331;-80
2021/03/22 00:34:40;;;;;;;;;6.00;4.50;;;;;10.51;40.82;97905.97;4743437;28;103669;-81
2021/03/22 00:37:06;;;;;;;;;5.00;4.00;;;;;10.51;40.99;97905.97;4740190;28;105244;-81
2021/03/22 00:39:33;;;;;;;;;6.00;5.00;;;;;10.50;40.75;97900.78;4840094;28;104760;-80
2021/03/22 00:42:00;;;;;;;;;7.00;5.00;;;;;10.51;40.77;97907.84;4833718;28;104023;-81
2021/03/22 00:44:26;;;;;;;;;4.00;4.00;;;;;10.50;40.88;97907.00;4847565;28;104367;-80
2021/03/22 00:46:54;;;;;;;;;5.00;4.00;;;;;10.49;40.82;97912.66;4693928;28;103380;-81
2021/03/22 00:49:21;;;;;;;;;5.25;5.00;;;;;10.49;40.37;97913.44;4808806;28;104382;-80
2021/03/22 00:51:48;;;;;;;;;9.00;5.25;;;;;10.49;40.84;97921.56;4857070;28;102793;-81
2021/03/22 00:54:14;;;;;;;;;7.75;6.00;;;;;10.49;40.95;97923.47;4830631;28;104535;-81
2021/03/22 00:56:41;;;;;;;;;4.50;4.25;;;;;10.48;40.78;97922.63;4841873;28;104415;-80
2021/03/22 00:59:08;;;;;;;;;4.50;4.50;;;;;10.47;40.88;97926.38;4795277;28;104469;-81
2021/03/22 01:01:34;;;;;;;;;3.25;3.25;;;;;10.45;40.43;97923.03;4847939;28;103674;-81
2021/03/22 01:04:02;;;;;;;;;5.50;4.00;;;;;10.46;41.07;97930.13;4808386;28;103941;-81
2021/03/22 01:06:29;;;;;;;;;4.00;3.00;;;;;10.46;40.77;97926.56;4786700;28;104135;-81
2021/03/22 01:08:55;;;;;;;;;5.00;4.00;;;;;10.46;40.71;97932.81;4816598;28;104070;-81
2021/03/22 01:11:22;;;;;;;;;4.25;3.50;;;;;10.46;40.68;97926.56;4804040;28;104446;-81
2021/03/22 01:13:53;;;;;;;;;4.00;4.00;;;;;10.44;41.20;97936.78;4830634;28;102842;-80
2021/03/22 01:16:34;;;;;;;;;4.50;4.50;;;;;10.46;40.41;97937.38;4846858;28;103849;-81
2021/03/22 01:19:09;;;;;;;;;5.00;4.00;;;;;10.44;40.96;97932.22;4848484;28;105329;-81
2021/03/22 01:21:37;;;;;;;;;3.00;3.00;;;;;10.43;40.95;97930.56;4846225;28;105714;-81
2021/03/22 01:24:04;;;;;;;;;3.50;3.00;;;;;10.45;40.75;97938.44;4853101;28;103920;-81
2021/03/22 01:26:32;;;;;;;;;4.25;4.00;;;;;10.44;40.73;97934.94;4858191;28;105036;-81
2021/03/22 01:28:59;;;;;;;;;5.00;4.50;;;;;10.40;40.66;97936.38;4684163;28;104094;-81
2021/03/22 01:31:26;;;;;;;;;5.25;3.00;;;;;10.44;40.88;97945.72;4797228;28;102710;-81
2021/03/22 01:33:54;;;;;;;;;3.50;3.00;;;;;10.42;40.81;97944.28;4855099;28;103671;-81
2021/03/22 01:36:26;;;;;;;;;3.00;3.00;;;;;10.43;41.01;97941.38;4857218;28;102174;-81
2021/03/22 01:38:53;;;;;;;;;3.50;2.75;;;;;10.44;41.17;97953.84;4788799;28;104138;-81
2021/03/22 01:41:42;;;;;;;;;3.25;3.00;;;;;10.43;40.89;97946.78;4737423;28;102816;-81
2021/03/22 01:44:28;;;;;;;;;3.00;3.00;;;;;10.44;40.90;97947.59;4643206;28;103484;-81
2021/03/22 01:47:05;;;;;;;;;3.25;2.50;;;;;10.43;41.11;97946.78;4742849;28;102840;-81
2021/03/22 01:49:48;;;;;;;;;2.00;2.00;;;;;10.42;40.48;97953.22;4791698;28;107952;-81
2021/03/22 01:52:15;;;;;;;;;4.00;2.50;;;;;10.42;40.71;97953.22;4795085;28;102313;-81
2021/03/22 01:54:41;;;;;;;;;2.00;2.00;;;;;10.43;40.75;97949.47;4806499;28;105952;-81
2021/03/22 01:57:35;;;;;;;;;4.25;3.00;;;;;10.41;40.82;97951.56;4816102;28;102643;-80
2021/03/22 02:00:12;;;;;;;;;5.25;4.00;;;;;10.41;40.77;97948.84;4839102;28;104193;-81
2021/03/22 02:02:39;;;;;;;;;3.25;3.25;;;;;10.39;41.16;97948.25;4786966;28;102272;-81
2021/03/22 02:05:08;;;;;;;;;4.00;3.00;;;;;10.40;41.09;97947.19;4615402;28;105768;-81
2021/03/22 02:07:35;;;;;;;;;3.00;3.00;;;;;10.37;41.02;97947.63;4715895;28;103855;-81
2021/03/22 02:10:04;;;;;;;;;3.00;2.50;;;;;10.36;41.00;97937.84;4712673;28;104138;-81
2021/03/22 02:12:30;;;;;;;;;3.25;3.00;;;;;10.36;41.06;97951.38;4722101;28;104748;-81
2021/03/22 02:14:57;;;;;;;;;4.00;3.75;;;;;10.37;41.00;97955.72;4654099;28;104316;-81
2021/03/22 02:17:28;;;;;;;;;3.00;2.00;;;;;10.37;40.76;97952.19;4675798;28;103216;-81
2021/03/22 02:20:14;;;;;;;;;2.50;2.50;;;;;10.34;40.92;97956.16;4745861;28;105225;-81
2021/03/22 02:22:46;;;;;;;;;4.25;4.00;;;;;10.35;40.92;97965.94;4798615;29;106714;-81
2021/03/22 02:25:38;;;;;;;;;1.75;1.75;;;;;10.36;40.81;97966.78;4807015;28;104048;-81
2021/03/22 02:28:14;;;;;;;;;3.00;3.00;;;;;10.35;40.86;97974.06;4801053;28;103393;-81
2021/03/22 02:31:02;;;;;;;;;5.75;2.00;;;;;10.36;40.63;97975.69;4819760;28;104408;-81
2021/03/22 02:33:41;;;;;;;;;4.25;3.50;;;;;10.37;40.50;97973.81;4788206;29;103589;-81
2021/03/22 02:36:13;;;;;;;;;5.00;4.00;;;;;10.36;40.83;97978.38;4801548;28;104132;-80
2021/03/22 02:38:48;;;;;;;;;3.25;2.00;;;;;10.34;40.72;97977.78;4785846;28;105241;-81
2021/03/22 02:41:21;;;;;;;;;2.00;2.00;;;;;10.34;40.49;97977.78;4807358;28;104067;-81
2021/03/22 02:44:08;;;;;;;;;4.00;4.00;;;;;10.35;40.80;97982.16;4799635;28;103064;-81
2021/03/22 02:46:35;;;;;;;;;4.00;3.25;;;;;10.33;40.61;97973.41;4810928;28;102136;-81
2021/03/22 02:49:04;;;;;;;;;3.25;3.25;;;;;10.33;40.59;97984.22;4815462;28;102709;-81
2021/03/22 02:51:50;;;;;;;;;2.00;2.00;;;;;10.34;40.66;97980.50;4799025;28;104060;-81
2021/03/22 02:54:54;;;;;;;;;3.00;3.00;;;;;10.35;40.84;97981.31;4807832;28;102959;-82
2021/03/22 02:57:29;;;;;;;;;3.00;2.25;;;;;10.35;40.78;97978.63;4659810;28;102661;-82
2021/03/22 02:59:59;;;;;;;;;3.25;2.50;;;;;10.34;40.78;97991.31;4809060;28;103389;-82
2021/03/22 03:02:30;;;;;;;;;1.50;1.00;;;;;10.34;40.90;97990.47;4820656;28;104937;-82
2021/03/22 03:04:57;;;;;;;;;2.25;2.25;;;;;10.34;40.81;98001.28;4809220;28;102847;-82
2021/03/22 03:07:24;;;;;;;;;1.50;1.50;;;;;10.34;41.01;97998.56;4743085;28;102969;-82
2021/03/22 03:09:51;;;;;;;;;4.00;2.00;;;;;10.33;40.77;98000.44;4793091;28;104516;-82
2021/03/22 03:12:23;;;;;;;;;3.00;3.00;;;;;10.32;40.91;98006.06;4801377;28;104396;-81
2021/03/22 03:14:52;;;;;;;;;2.75;2.00;;;;;10.33;40.83;98008.56;4801363;28;102393;-81
2021/03/22 03:17:19;;;;;;;;;3.00;3.00;;;;;10.30;40.59;98003.59;4807786;28;104198;-82
2021/03/22 03:19:49;;;;;;;;;2.00;2.00;;;;;10.31;40.94;98009.81;4813346;28;102308;-82
2021/03/22 03:22:15;;;;;;;;;4.25;2.00;;;;;10.31;40.43;98007.94;4828475;28;104070;-82
2021/03/22 03:24:42;;;;;;;;;2.50;1.00;;;;;10.29;40.54;98004.63;4720545;28;104430;-82
2021/03/22 03:27:16;;;;;;;;;3.00;2.50;;;;;10.28;40.59;98006.50;4798626;28;102712;-82
2021/03/22 03:29:43;;;;;;;;;1.50;1.00;;;;;10.28;40.73;98002.94;4764930;28;103003;-81
2021/03/22 03:32:15;;;;;;;;;1.75;1.75;;;;;10.28;40.71;98008.34;4798357;28;104803;-81
2021/03/22 03:34:42;;;;;;;;;3.00;2.00;;;;;10.27;40.68;98012.09;4727912;29;102693;-82
2021/03/22 03:37:08;;;;;;;;;2.00;2.00;;;;;10.26;40.81;98015.88;4815564;28;102941;-82
2021/03/22 03:39:35;;;;;;;;;2.75;2.00;;;;;10.26;40.73;98019.41;4739306;28;102721;-82
2021/03/22 03:42:04;;;;;;;;;3.75;2.50;;;;;10.28;41.19;98020.00;4800864;28;104099;-82
2021/03/22 03:44:31;;;;;;;;;2.00;2.00;;;;;10.28;41.27;98029.97;4851197;28;104483;-82
2021/03/22 03:46:57;;;;;;;;;2.25;1.50;;;;;10.30;40.75;98022.50;4837234;28;104182;-82
2021/03/22 03:49:24;;;;;;;;;2.25;2.00;;;;;10.33;40.77;98032.88;4742855;28;102342;-82
2021/03/22 03:51:51;;;;;;;;;2.50;2.00;;;;;10.36;40.39;98037.84;4833263;28;104084;-82
2021/03/22 03:54:18;;;;;;;;;2.50;2.00;;;;;10.35;40.87;98028.09;4839083;28;103149;-81
2021/03/22 03:56:44;;;;;;;;;1.50;1.50;;;;;10.39;40.83;98032.03;4818161;28;102168;-81
2021/03/22 03:59:11;;;;;;;;;1.75;1.50;;;;;10.41;40.90;98035.34;4831991;28;104481;-81
2021/03/22 04:01:37;;;;;;;;;1.00;1.00;;;;;10.42;40.73;98037.00;4832529;28;104039;-81
2021/03/22 04:04:05;;;;;;;;;2.00;2.00;;;;;10.44;40.78;98040.34;4836693;28;103867;-81
2021/03/22 04:06:32;;;;;;;;;3.00;2.00;;;;;10.44;40.67;98045.72;4853699;28;102273;-81
2021/03/22 04:09:07;;;;;;;;;3.00;1.00;;;;;10.45;40.70;98052.78;4828558;28;102227;-81
2021/03/22 04:11:36;;;;;;;;;2.75;2.00;;;;;10.46;40.77;98051.75;4843878;28;104092;-81
2021/03/22 04:14:04;;;;;;;;;1.00;1.00;;;;;10.46;40.78;98049.03;4825532;28;103230;-81
2021/03/22 04:16:31;;;;;;;;;0.25;0.25;;;;;10.48;40.28;98056.94;4841471;28;102684;-81
2021/03/22 04:18:58;;;;;;;;;3.00;2.75;;;;;10.48;40.74;98057.78;4827034;28;102810;-81
2021/03/22 04:21:27;;;;;;;;;1.25;1.00;;;;;10.47;40.67;98061.50;4746833;28;104465;-81
2021/03/22 04:23:54;;;;;;;;;3.00;1.75;;;;;10.48;40.51;98060.47;4787284;28;103452;-81
2021/03/22 04:26:20;;;;;;;;;1.25;1.00;;;;;10.48;40.20;98065.06;4841927;28;103956;-81
2021/03/22 04:28:47;;;;;;;;;2.25;1.25;;;;;10.48;40.43;98060.47;4738943;28;103273;-82
2021/03/22 04:31:19;;;;;;;;;2.00;2.00;;;;;10.49;40.81;98070.22;4821814;28;104143;-82
2021/03/22 04:33:46;;;;;;;;;2.00;2.00;;;;;10.49;40.77;98072.13;4857013;28;102611;-82
2021/03/22 04:36:13;;;;;;;;;1.75;1.00;;;;;10.49;40.66;98078.31;4745737;28;102308;-82
2021/03/22 04:38:40;;;;;;;;;1.75;1.00;;;;;10.49;40.50;98074.81;4810350;28;102226;-81
2021/03/22 04:41:07;;;;;;;;;1.50;1.50;;;;;10.49;40.76;98089.13;4846359;28;104259;-82
2021/03/22 04:43:34;;;;;;;;;1.75;1.00;;;;;10.48;40.57;98095.63;4844803;28;104121;-82
2021/03/22 04:46:01;;;;;;;;;1.50;1.50;;;;;10.46;41.02;98089.56;4848556;28;103347;-82
2021/03/22 04:48:28;;;;;;;;;1.00;1.00;;;;;10.48;40.80;98095.63;4843635;28;103089;-82
2021/03/22 04:50:55;;;;;;;;;1.50;1.50;;;;;10.47;40.81;98099.34;4837162;28;104254;-82
2021/03/22 04:53:22;;;;;;;;;1.00;1.00;;;;;10.47;40.49;98098.53;4840586;28;103265;-81
2021/03/22 04:55:48;;;;;;;;;1.00;1.00;;;;;10.46;40.28;98103.09;4790840;28;103240;-81
2021/03/22 04:58:15;;;;;;;;;1.50;1.50;;;;;10.48;40.45;98101.03;4820697;28;103047;-81
2021/03/22 05:00:45;;;;;;;;;2.00;2.00;;;;;10.50;40.63;98098.91;4720480;28;105422;-81
2021/03/22 05:03:14;;;;;;;;;1.25;1.25;;;;;10.53;40.45;98103.91;4814935;28;102657;-81
2021/03/22 05:05:41;;;;;;;;;2.00;2.00;;;;;10.55;40.27;98107.22;4818114;28;102459;-81
2021/03/22 05:08:14;;;;;;;;;2.50;1.00;;;;;10.57;40.64;98115.13;4766908;28;103822;-81
2021/03/22 05:10:43;;;;;;;;;2.50;2.50;;;;;10.57;40.38;98115.13;4701475;28;104586;-81
2021/03/22 05:13:12;;;;;;;;;1.25;1.00;;;;;10.59;40.10;98130.09;4760747;28;102303;-80
2021/03/22 05:15:38;;;;;;;;;2.50;1.50;;;;;10.59;40.34;98119.28;4791222;28;102140;-81
2021/03/22 05:18:06;;;;;;;;;2.00;1.25;;;;;10.61;40.28;98128.00;4832149;28;104731;-81
2021/03/22 05:20:41;;;;;;;;;1.00;1.00;;;;;10.61;40.63;98130.72;4779685;28;104104;-81
2021/03/22 05:23:10;;;;;;;;;1.75;1.75;;;;;10.63;40.22;98139.44;4790169;28;105177;-81
2021/03/22 05:25:37;;;;;;;;;1.00;1.00;;;;;10.63;40.62;98128.59;4846817;28;102635;-82
2021/03/22 05:28:05;;;;;;;;;2.00;1.00;;;;;10.64;40.27;98134.84;4774926;28;102601;-82
2021/03/22 05:30:32;;;;;;;;;3.75;1.50;;;;;10.64;40.33;98132.97;4751041;28;104188;-82
2021/03/22 05:33:00;;;;;;;;;2.00;1.25;;;;;10.65;40.28;98128.41;4807450;28;102622;-82
2021/03/22 05:35:27;;;;;;;;;1.00;1.00;;;;;10.65;40.14;98134.66;4779256;28;103949;-81
2021/03/22 05:37:54;;;;;;;;;2.25;1.75;;;;;10.66;40.08;98136.31;4811346;28;103202;-82
2021/03/22 05:40:30;;;;;;;;;1.00;1.00;;;;;10.66;40.29;98136.31;4817519;28;104231;-81
2021/03/22 05:42:59;;;;;;;;;0.50;0.50;;;;;10.65;40.22;98131.94;4832063;28;103570;-81
2021/03/22 05:45:39;;;;;;;;;1.00;1.00;;;;;10.66;40.08;98136.31;4812626;28;103794;-82
2021/03/22 05:48:29;;;;;;;;;1.75;1.75;;;;;10.66;40.38;98143.59;4626155;28;103359;-82
2021/03/22 05:51:10;;;;;;;;;2.00;2.00;;;;;10.66;40.03;98140.88;4631189;28;108930;-81
2021/03/22 05:53:52;;;;;;;;;1.75;1.50;;;;;10.65;40.73;98147.34;4822536;28;102278;-81
2021/03/22 05:56:31;;;;;;;;;1.00;1.00;;;;;10.64;40.55;98154.59;4750711;28;103812;-81
2021/03/22 05:59:20;;;;;;;;;1.75;1.50;;;;;10.65;40.29;98161.69;4823269;28;102665;-81
2021/03/22 06:01:47;;;;;;;;;2.25;1.50;;;;;10.64;40.63;98159.19;4728291;28;104113;-81
2021/03/22 06:04:24;;;;;;;;;2.25;1.00;;;;;10.64;40.37;98153.78;4695417;28;107686;-81
2021/03/22 06:06:51;;;;;;;;;1.00;0.00;;;;;10.64;40.20;98156.47;4643089;28;105110;-82
2021/03/22 06:09:31;;;;;;;;;1.00;1.00;;;;;10.64;40.28;98159.19;4813538;28;102705;-81
2021/03/22 06:12:01;;;;;;;;;2.00;1.00;;;;;10.63;40.53;98168.34;4729748;28;104406;-81
2021/03/22 06:14:31;;;;;;;;;1.25;1.00;;;;;10.63;40.28;98163.75;4667434;29;103826;-81
2021/03/22 06:17:13;;;;;;;;;1.00;1.00;;;;;10.62;40.62;98172.09;4743400;28;102657;-81
2021/03/22 06:19:43;;;;;;;;;2.00;1.25;;;;;10.61;40.26;98165.03;4711703;28;102413;-81
2021/03/22 06:22:17;;;;;;;;;1.50;1.25;;;;;10.63;40.45;98179.16;4801759;28;104087;-81
2021/03/22 06:24:44;;;;;;;;;1.50;1.50;;;;;10.61;40.32;98171.28;4762192;28;102222;-81
2021/03/22 06:27:10;;;;;;;;;1.00;1.00;;;;;10.61;40.34;98175.84;4771559;28;107305;-81
2021/03/22 06:29:38;;;;;;;;;1.50;1.00;;;;;10.59;40.29;98178.75;4766958;28;103521;-81
2021/03/22 06:32:08;;;;;;;;;1.00;1.00;;;;;10.60;40.58;98185.81;4833621;28;104870;-81
2021/03/22 06:34:44;;;;;;;;;0.75;0.50;;;;;10.60;40.19;98177.72;4830878;28;102849;-82
2021/03/22 06:37:12;;;;;;;;;1.50;1.00;;;;;10.59;40.42;98194.97;4714792;28;102332;-82
2021/03/22 06:39:42;;;;;;;;;1.00;1.00;;;;;10.58;40.42;98187.09;4744408;28;102274;-81
2021/03/22 06:42:24;;;;;;;;;2.50;1.75;;;;;10.59;40.50;98202.25;4797682;28;104973;-82
2021/03/22 06:44:52;;;;;;;;;2.00;1.00;;;;;10.57;40.41;98202.47;4721709;28;103184;-81
2021/03/22 06:47:22;;;;;;;;;2.75;1.00;;;;;10.58;40.36;98212.22;4849042;28;102167;-81
2021/03/22 06:50:11;;;;;;;;;1.25;1.00;;;;;10.57;40.67;98210.59;4742017;28;106492;-81
2021/03/22 06:52:40;;;;;;;;;1.00;1.00;;;;;10.58;40.39;98216.81;4764650;28;104063;-81
2021/03/22 06:55:25;;;;;;;;;3.00;1.25;;;;;10.56;40.41;98222.44;4768807;28;104546;-81
2021/03/22 06:57:52;;;;;;;;;0.50;0.50;;;;;10.56;40.32;98224.31;4740375;28;103557;-81
2021/03/22 07:00:21;;;;;;;;;1.00;0.50;;;;;10.55;40.41;98220.75;4805300;28;102769;-81
2021/03/22 07:03:05;;;;;;;;;1.50;1.00;;;;;10.55;40.02;98222.63;4740568;28;104181;-82
2021/03/22 07:05:37;;;;;;;;;1.00;1.00;;;;;10.56;40.70;98237.81;4762571;28;103027;-81
2021/03/22 07:08:07;;;;;;;;;2.00;1.00;;;;;10.56;40.34;98233.25;4732088;28;102622;-81
2021/03/22 07:10:39;;;;;;;;;1.00;0.75;;;;;10.55;40.45;98234.28;4857807;28;104094;-81
2021/03/22 07:13:16;;;;;;;;;2.00;2.00;;;;;10.56;40.33;98237.81;4791669;28;103371;-81
2021/03/22 07:15:43;;;;;;;;;1.00;1.00;;;;;10.55;40.78;98233.44;4846099;28;103490;-81
2021/03/22 07:18:12;;;;;;;;;2.00;1.50;;;;;10.55;40.45;98236.97;4851635;28;105042;-81
2021/03/22 07:20:55;;;;;;;;;2.75;2.00;;;;;10.56;40.20;98243.22;4823980;28;102902;-81
2021/03/22 07:23:22;;;;;;;;;1.75;1.75;;;;;10.54;40.32;98238.00;4704069;28;107364;-81
2021/03/22 07:26:04;;;;;;;;;1.00;1.00;;;;;10.55;40.18;98239.69;4855756;28;103315;-81
2021/03/22 07:28:43;;;;;;;;;1.25;1.25;;;;;10.55;40.27;98245.09;4814012;28;102848;-81
2021/03/22 07:31:23;;;;;;;;;1.75;1.00;;;;;10.56;40.26;98243.22;4832574;28;102495;-82
2021/03/22 07:33:58;;;;;;;;;2.00;1.00;;;;;10.56;40.32;98245.94;4874663;28;104121;-81
2021/03/22 07:36:55;;;;;;;;;1.00;1.00;;;;;10.56;40.16;98254.03;4770555;28;102822;-81
2021/03/22 07:39:27;;;;;;;;;1.00;1.00;;;;;10.55;40.29;98253.19;4794663;28;104669;-81
2021/03/22 07:42:30;;;;;;;;;1.00;1.00;;;;;10.56;40.54;98251.34;4820377;28;102747;-81
2021/03/22 07:45:25;;;;;;;;;1.00;0.50;;;;;10.55;40.52;98252.38;4854626;28;104077;-81
2021/03/22 07:48:04;;;;;;;;;1.00;1.00;;;;;10.57;40.47;98250.31;4752677;28;102226;-80
2021/03/22 07:50:52;;;;;;;;;3.50;2.00;;;;;10.58;40.25;98246.56;4846589;28;103468;-81
2021/03/22 07:53:28;;;;;;;;;1.00;1.00;;;;;10.58;40.33;98251.97;4859227;28;102772;-81
2021/03/22 07:55:56;;;;;;;;;1.00;1.00;;;;;10.59;40.62;98254.44;4861568;28;107354;-81
2021/03/22 07:58:43;;;;;;;;;1.75;1.00;;;;;10.59;40.68;98253.59;4847466;28;102759;-81
2021/03/22 08:01:51;;;;;;;;;2.75;1.00;;;;;10.60;40.09;98250.69;4838665;28;102753;-81
2021/03/22 08:04:27;;;;;;;;;2.00;2.00;;;;;10.60;40.70;98248.00;4780809;28;104109;-80
2021/03/22 08:06:59;;;;;;;;;1.75;1.00;;;;;10.60;40.17;98241.75;4666381;28;104095;-81
2021/03/22 08:09:39;;;;;;;;;2.00;1.50;;;;;10.61;40.20;98248.84;4841112;28;104137;-80
2021/03/22 08:12:51;;;;;;;;;1.50;1.50;;;;;10.63;40.07;98252.16;4774590;28;102746;-81
2021/03/22 08:15:41;;;;;;;;;2.00;1.00;;;;;10.64;40.32;98251.13;4757573;28;104421;-81
2021/03/22 08:18:23;;;;;;;;;2.75;1.00;;;;;10.63;40.25;98244.88;4700872;28;110047;-81
2021/03/22 08:21:16;;;;;;;;;2.00;1.00;;;;;10.64;40.25;98249.25;4798316;28;105727;-81
2021/03/22 08:23:50;;;;;;;;;1.00;1.00;;;;;10.64;40.17;98249.25;4801581;28;103022;-81
2021/03/22 08:26:32;;;;;;;;;1.00;1.00;;;;;10.64;40.26;98246.53;4739168;28;102476;-81
2021/03/22 08:29:04;;;;;;;;;1.00;1.00;;;;;10.65;40.31;98253.63;4706183;28;111891;-81
2021/03/22 08:31:44;;;;;;;;;1.25;1.00;;;;;10.65;40.15;98256.31;4820848;28;102508;-81
2021/03/22 08:34:17;;;;;;;;;2.00;1.00;;;;;10.65;40.03;98258.19;4800506;28;102882;-81
2021/03/22 08:37:06;;;;;;;;;1.00;1.00;;;;;10.65;40.21;98259.03;4742621;28;102329;-81
2021/03/22 08:39:38;;;;;;;;;1.75;1.75;;;;;10.66;40.29;98266.09;4775105;28;108780;-81
2021/03/22 08:42:28;;;;;;;;;2.00;2.00;;;;;10.67;40.24;98267.75;4790846;28;102537;-81
2021/03/22 08:45:12;;;;;;;;;1.75;1.00;;;;;10.67;40.26;98270.44;4793847;28;102776;-80
2021/03/22 08:47:42;;;;;;;;;1.00;1.00;;;;;10.68;40.34;98269.41;4825290;28;102397;-80
2021/03/22 08:50:14;;;;;;;;;1.50;1.50;;;;;10.69;40.60;98270.25;4829120;28;104066;-81
2021/03/22 08:52:59;;;;;;;;;1.50;1.50;;;;;10.68;40.37;98272.13;4791249;28;105794;-80
2021/03/22 08:55:30;;;;;;;;;1.75;1.00;;;;;10.70;40.48;98271.91;4833252;28;104908;-80
2021/03/22 08:58:14;;;;;;;;;2.00;1.00;;;;;10.70;40.19;98278.16;4763377;28;102842;-80
2021/03/22 09:00:43;;;;;;;;;1.25;1.25;;;;;10.71;40.18;98277.13;4771824;28;104534;-81
2021/03/22 09:03:27;;;;;;;;;2.00;2.00;;;;;10.71;40.25;98271.72;4783459;28;102723;-80
2021/03/22 09:06:16;;;;;;;;;2.00;1.75;;;;;10.73;40.48;98280.44;4716234;29;103259;-81
2021/03/22 09:08:54;;;;;;;;;1.50;1.50;;;;;10.74;40.17;98284.81;4757221;29;102688;-81
2021/03/22 09:11:26;;;;;;;;;2.00;2.00;;;;;10.73;40.08;98283.13;4771224;29;104258;-80
2021/03/22 09:14:11;;;;;;;;;1.00;1.00;;;;;10.74;40.08;98282.09;4750365;28;102356;-80
2021/03/22 09:16:42;;;;;;;;;1.50;0.00;;;;;10.74;40.37;98276.69;4792870;28;102370;-80
2021/03/22 09:19:13;;;;;;;;;2.00;2.00;;;;;10.74;40.08;98279.41;4730083;28;104881;-80
2021/03/22 09:21:47;;;;;;;;;1.75;1.75;;;;;10.76;40.21;98281.06;4873740;28;104076;-80
2021/03/22 09:24:43;;;;;;;;;0.75;0.75;;;;;10.74;40.36;98284.81;4849260;28;102428;-81
2021/03/22 09:27:20;;;;;;;;;2.75;1.75;;;;;10.75;40.36;98280.22;4809007;28;102859;-80
2021/03/22 09:29:51;;;;;;;;;1.75;1.75;;;;;10.75;40.21;98277.53;4851617;28;102412;-81
2021/03/22 09:32:35;;;;;;;;;3.00;2.00;;;;;10.76;40.26;98283.78;4857362;28;104094;-80
2021/03/22 09:35:13;;;;;;;;;1.00;1.00;;;;;10.76;40.34;98286.47;4785092;28;103143;-80
2021/03/22 09:37:49;;;;;;;;;2.75;2.00;;;;;10.77;39.94;98282.69;4850406;28;102416;-80
2021/03/22 09:40:20;;;;;;;;;2.00;2.00;;;;;10.76;40.12;98278.38;4794478;28;104501;-80
2021/03/22 09:43:20;;;;;;;;;1.75;1.75;;;;;10.77;40.11;98288.13;4866440;28;103152;-81
2021/03/22 09:45:53;;;;;;;;;1.00;1.00;;;;;10.79;40.22;98288.75;4831126;28;102315;-81
2021/03/22 09:48:41;;;;;;;;;2.00;1.25;;;;;10.78;40.11;98289.78;4858032;28;103574;-80
2021/03/22 09:51:10;;;;;;;;;1.50;1.50;;;;;10.79;40.36;98286.03;4843567;28;102456;-80
2021/03/22 09:53:52;;;;;;;;;1.00;1.00;;;;;10.80;40.28;98288.56;4768873;28;104462;-80
2021/03/22 09:56:22;;;;;;;;;2.00;1.00;;;;;10.80;39.99;98290.41;4787095;28;105876;-81
2021/03/22 09:58:53;;;;;;;;;1.00;1.00;;;;;10.81;40.27;98286.69;4847509;28;102769;-80
2021/03/22 10:01:26;;;;;;;;;2.50;1.00;;;;;10.82;39.81;98291.84;4827811;28;102250;-81
2021/03/22 10:04:13;;;;;;;;;1.00;1.00;;;;;10.83;39.99;98292.69;4677250;28;104856;-80
2021/03/22 10:07:02;;;;;;;;;1.25;1.25;;;;;10.83;39.91;98290.81;4719439;28;103044;-81
2021/03/22 10:10:01;;;;;;;;;1.25;1.00;;;;;10.84;40.26;98284.38;4784860;28;102608;-81
2021/03/22 10:12:46;;;;;;;;;2.00;1.25;;;;;10.85;39.97;98280.59;4768989;29;105324;-81
2021/03/22 10:15:14;;;;;;;;;1.50;1.50;;;;;10.86;40.09;98276.03;4722069;29;107936;-80
2021/03/22 10:17:52;;;;;;;;;2.75;2.00;;;;;10.85;39.94;98275.19;4722198;29;103140;-81
2021/03/22 10:20:36;;;;;;;;;1.00;1.00;;;;;10.88;40.54;98271.25;4693557;28;102635;-80
2021/03/22 10:23:44;;;;;;;;;1.00;1.00;;;;;10.89;39.97;98275.63;4779985;29;102547;-80
2021/03/22 10:26:44;;;;;;;;;1.00;1.00;;;;;10.89;39.84;98270.22;4740750;29;104471;-80
2021/03/22 10:29:23;;;;;;;;;2.00;2.00;;;;;10.91;40.11;98273.53;4750133;29;102769;-81
2021/03/22 10:31:56;;;;;;;;;1.50;1.00;;;;;10.92;40.07;98269.78;4792410;29;102677;-80
2021/03/22 10:34:31;;;;;;;;;2.25;1.75;;;;;10.91;39.86;98263.56;4828729;28;102686;-81
2021/03/22 10:37:11;;;;;;;;;2.00;1.75;;;;;10.92;40.04;98269.78;4841545;28;103941;-81
2021/03/22 10:39:46;;;;;;;;;1.75;1.75;;;;;10.93;39.81;98276.88;4888465;28;102950;-81
2021/03/22 10:42:28;;;;;;;;;1.50;1.00;;;;;10.94;39.75;98284.75;4844969;28;102974;-81
2021/03/22 10:44:56;;;;;;;;;2.00;1.00;;;;;10.96;40.06;98271.88;4849590;28;103027;-81
2021/03/22 10:47:28;;;;;;;;;1.25;1.25;;;;;10.98;39.56;98269.78;4686192;28;103216;-81
2021/03/22 10:50:28;;;;;;;;;2.00;2.00;;;;;11.00;39.82;98277.69;4807261;28;102643;-81
2021/03/22 10:53:13;;;;;;;;;2.00;1.00;;;;;11.00;39.88;98267.69;4686089;28;105669;-81
2021/03/22 10:55:46;;;;;;;;;3.00;1.00;;;;;11.02;39.94;98265.63;4885054;28;103117;-81
2021/03/22 10:58:34;;;;;;;;;1.00;1.00;;;;;11.03;40.00;98269.16;4775985;28;103386;-81
2021/03/22 11:01:05;;;;;;;;;1.75;0.75;;;;;11.05;39.93;98275.16;4724077;28;103324;-81
2021/03/22 11:03:36;;;;;;;;;2.00;2.00;;;;;11.04;39.95;98268.94;4755693;28;104705;-81
2021/03/22 11:06:20;;;;;;;;;1.00;1.00;;;;;11.03;39.94;98261.84;4804810;28;105821;-81
2021/03/22 11:08:53;;;;;;;;;4.50;2.00;;;;;11.03;39.64;98267.25;4830610;28;103139;-80
2021/03/22 11:11:21;;;;;;;;;2.00;1.75;;;;;11.03;40.14;98266.44;4849144;28;102302;-81
2021/03/22 11:13:51;;;;;;;;;2.00;1.00;;;;;11.04;39.99;98268.09;4812460;28;102612;-81
2021/03/22 11:16:26;;;;;;;;;0.75;0.75;;;;;11.04;39.78;98270.78;4831149;28;102765;-81
2021/03/22 11:18:54;;;;;;;;;1.50;1.25;;;;;11.05;39.76;98269.75;4793126;28;104323;-81
2021/03/22 11:21:23;;;;;;;;;1.00;0.00;;;;;11.08;40.06;98263.91;4833577;28;103485;-81
2021/03/22 11:23:54;;;;;;;;;1.00;1.00;;;;;11.10;39.40;98267.25;4659318;28;102760;-81
2021/03/22 11:26:24;;;;;;;;;1.00;1.00;;;;;11.11;39.83;98260.81;4653513;28;103416;-81
2021/03/22 11:29:15;;;;;;;;;0.50;0.50;;;;;11.13;39.86;98261.41;4720133;28;104366;-81
2021/03/22 11:31:43;;;;;;;;;1.00;1.00;;;;;11.12;39.81;98257.88;4661818;28;102943;-81
2021/03/22 11:34:29;;;;;;;;;1.00;0.75;;;;;11.13;39.76;98261.41;4785812;28;102370;-80
2021/03/22 11:37:05;;;;;;;;;1.50;1.00;;;;;11.14;39.59;98265.78;4736497;28;102837;-81
2021/03/22 11:39:33;;;;;;;;;1.00;0.00;;;;;11.14;39.61;98265.78;4617395;28;104553;-81
2021/03/22 11:42:02;;;;;;;;;1.00;0.00;;;;;11.13;39.83;98264.94;4678279;28;102783;-81
2021/03/22 11:44:38;;;;;;;;;1.00;1.00;;;;;11.13;39.64;98266.81;4824673;28;103037;-81
2021/03/22 11:47:44;;;;;;;;;2.00;2.00;;;;;11.16;39.78;98258.28;4860495;28;102518;-81
2021/03/22 11:50:40;;;;;;;;;2.00;1.00;;;;;11.18;39.89;98264.31;4859106;28;104069;-81
2021/03/22 11:53:22;;;;;;;;;1.00;1.00;;;;;11.21;39.77;98254.94;4841584;28;103015;-80
2021/03/22 11:55:53;;;;;;;;;1.00;1.00;;;;;11.22;39.58;98249.31;4843796;28;102350;-81